Highview, Kentucky
Current Conditions -  °F | °C
As of 8:56 PM on Thursday 20 Nov 2014 (Local Time) from KSDF Reporting Station
Clear Clear  
Wind Chill: 20°   Ceiling: Unl
Heat Index: 27°   Visibility: 10mi
Dew Point: 17°   Wind: 6mph
Humidity: 66%   Direction: 270°W
Pressure: 30.27"   Gusts: NA
Location:  38.14°N, 85.64°W
Report Text: KSDF 210156Z 27005KT 10SM CLR M03/M08 A3027 RMK AO2 SLP256 T10281083
Loading
Personal Weather Stations






























Interactive Weather Map New forecast layout! Learn more

10-Day Weather Forecast

Advertisements
Track Severe Weather on mobile